createdAt,value
2019-01-23T00:00:04.004Z,0.00
2019-01-23T00:01:03.918Z,0.00
2019-01-23T00:02:03.828Z,0.00
2019-01-23T00:03:03.740Z,0.00
2019-01-23T00:04:03.652Z,0.00
2019-01-23T00:05:03.564Z,0.00
2019-01-23T00:06:03.477Z,0.00
2019-01-23T00:07:03.388Z,0.00
2019-01-23T00:08:03.300Z,0.00
2019-01-23T00:09:03.213Z,0.00
2019-01-23T00:10:03.124Z,0.00
2019-01-23T00:11:03.037Z,0.00
2019-01-23T00:12:02.949Z,0.00
2019-01-23T00:13:03.571Z,0.00
2019-01-23T00:14:02.773Z,0.00
2019-01-23T00:15:02.685Z,0.00
2019-01-23T00:16:02.598Z,0.00
2019-01-23T00:17:02.511Z,0.00
2019-01-23T00:18:02.422Z,0.00
2019-01-23T00:19:02.336Z,0.00
2019-01-23T00:20:02.247Z,0.00
2019-01-23T00:21:02.159Z,0.00
2019-01-23T00:22:02.074Z,0.00
2019-01-23T00:23:01.984Z,0.00
2019-01-23T00:24:01.897Z,0.00
2019-01-23T00:25:01.810Z,0.00
2019-01-23T00:26:01.720Z,0.00
2019-01-23T00:27:01.633Z,0.00
2019-01-23T00:28:01.547Z,0.00
2019-01-23T00:29:01.458Z,0.00
2019-01-23T00:30:01.370Z,0.00
2019-01-23T00:31:01.281Z,0.00
2019-01-23T00:32:01.195Z,0.00
2019-01-23T00:33:01.108Z,0.00
2019-01-23T00:34:01.019Z,0.00
2019-01-23T00:35:00.931Z,0.00
2019-01-23T00:36:00.845Z,0.00
2019-01-23T00:37:00.757Z,0.00
2019-01-23T00:38:00.668Z,0.00
2019-01-23T00:39:00.583Z,0.00
2019-01-23T00:40:00.495Z,0.00
2019-01-23T00:41:00.409Z,0.00
2019-01-23T00:42:00.318Z,0.00
2019-01-23T00:43:00.232Z,0.00
2019-01-23T00:44:00.144Z,0.00
2019-01-23T00:45:00.058Z,0.00
2019-01-23T00:45:59.970Z,0.00
2019-01-23T00:46:59.881Z,0.00
2019-01-23T00:47:59.795Z,0.00
2019-01-23T00:48:59.707Z,0.00
2019-01-23T00:49:59.620Z,0.00
2019-01-23T00:50:59.532Z,0.00
2019-01-23T00:51:59.444Z,0.00
2019-01-23T00:52:59.357Z,0.00
2019-01-23T00:53:59.269Z,0.00
2019-01-23T00:54:59.532Z,0.00
2019-01-23T00:55:59.095Z,0.00
2019-01-23T00:56:59.007Z,0.00
2019-01-23T00:57:58.919Z,0.00
2019-01-23T00:58:58.832Z,0.00
2019-01-23T00:59:58.744Z,0.00
2019-01-23T01:00:58.658Z,0.00
2019-01-23T01:01:58.570Z,0.00
2019-01-23T01:02:58.486Z,0.00
2019-01-23T01:03:58.396Z,0.00
2019-01-23T01:04:58.314Z,0.00
2019-01-23T01:05:58.220Z,0.00
2019-01-23T01:06:58.135Z,0.00
2019-01-23T01:07:58.046Z,0.00
2019-01-23T01:08:57.959Z,0.00
2019-01-23T01:09:57.871Z,0.00
2019-01-23T01:10:57.883Z,0.00
2019-01-23T01:11:57.697Z,0.00
2019-01-23T01:12:57.610Z,0.00
2019-01-23T01:13:57.523Z,0.00
2019-01-23T01:14:57.433Z,0.00
2019-01-23T01:15:57.351Z,0.00
2019-01-23T01:16:57.261Z,0.00
2019-01-23T01:17:57.173Z,0.00
2019-01-23T01:18:57.087Z,0.00
2019-01-23T01:19:56.999Z,0.00
2019-01-23T01:20:56.914Z,0.00
2019-01-23T01:21:56.826Z,0.00
2019-01-23T01:22:56.739Z,0.00
2019-01-23T01:23:56.649Z,0.00
2019-01-23T01:24:56.566Z,0.00
2019-01-23T01:25:56.475Z,0.00
2019-01-23T01:26:56.388Z,0.00
2019-01-23T01:27:56.301Z,0.00
2019-01-23T01:28:56.283Z,0.00
2019-01-23T01:29:56.125Z,0.00
2019-01-23T01:30:56.039Z,0.00
2019-01-23T01:31:55.954Z,0.00
2019-01-23T01:32:55.866Z,0.00
2019-01-23T01:33:55.778Z,0.00
2019-01-23T01:34:55.691Z,0.00
2019-01-23T01:35:55.604Z,0.00
2019-01-23T01:36:55.517Z,0.00
2019-01-23T01:37:55.429Z,0.00
2019-01-23T01:38:55.343Z,0.00
2019-01-23T01:39:55.256Z,0.00
2019-01-23T01:40:55.168Z,0.00
2019-01-23T01:41:55.081Z,0.00
2019-01-23T01:42:54.995Z,0.00
2019-01-23T01:43:54.906Z,0.00
2019-01-23T01:44:54.821Z,0.00
2019-01-23T01:45:54.732Z,0.00
2019-01-23T01:46:54.650Z,0.00
2019-01-23T01:47:54.568Z,0.00
2019-01-23T01:48:54.496Z,0.00
2019-01-23T01:49:54.384Z,0.00
2019-01-23T01:50:54.297Z,0.00
2019-01-23T01:51:54.211Z,0.00
2019-01-23T01:52:54.123Z,0.00
2019-01-23T01:53:54.035Z,0.00
2019-01-23T01:54:53.950Z,0.00
2019-01-23T01:55:53.863Z,0.00
2019-01-23T01:56:53.778Z,0.00
2019-01-23T01:57:53.689Z,0.00
2019-01-23T01:58:53.603Z,0.00
2019-01-23T01:59:53.515Z,0.00
2019-01-23T02:00:53.428Z,0.00
2019-01-23T02:01:53.340Z,0.00
2019-01-23T02:02:53.256Z,0.00
2019-01-23T02:03:53.168Z,0.00
2019-01-23T02:04:53.079Z,0.00
2019-01-23T02:05:52.992Z,0.00
2019-01-23T02:06:52.906Z,0.00
2019-01-23T02:07:52.823Z,0.00
2019-01-23T02:08:52.731Z,0.00
2019-01-23T02:09:52.644Z,0.00
2019-01-23T02:10:52.557Z,0.00
2019-01-23T02:11:52.470Z,0.00
2019-01-23T02:12:52.385Z,0.00
2019-01-23T02:13:52.296Z,0.00
2019-01-23T02:14:52.209Z,0.00
2019-01-23T02:15:52.123Z,0.00
2019-01-23T02:16:52.036Z,0.00
2019-01-23T02:17:51.948Z,0.00
2019-01-23T02:18:51.861Z,0.00
2019-01-23T02:19:51.775Z,0.00
2019-01-23T02:20:51.687Z,0.00
2019-01-23T02:21:51.600Z,0.00
2019-01-23T02:22:51.513Z,0.00
2019-01-23T02:23:51.426Z,0.00
2019-01-23T02:24:51.342Z,0.00
2019-01-23T02:25:51.302Z,0.00
2019-01-23T02:26:51.166Z,0.00
2019-01-23T02:27:51.080Z,0.00
2019-01-23T02:28:50.994Z,0.00
2019-01-23T02:29:50.905Z,0.00
2019-01-23T02:30:50.819Z,0.00
2019-01-23T02:31:50.731Z,0.00
2019-01-23T02:32:50.646Z,0.00
2019-01-23T02:33:50.557Z,0.00
2019-01-23T02:34:50.472Z,0.00
2019-01-23T02:35:50.383Z,0.00
2019-01-23T02:36:50.301Z,0.00
2019-01-23T02:37:50.213Z,0.00
2019-01-23T02:38:50.125Z,0.00
2019-01-23T02:39:50.037Z,0.00
2019-01-23T02:40:49.956Z,0.00
2019-01-23T02:41:50.966Z,0.00
2019-01-23T02:42:49.776Z,0.00
2019-01-23T02:43:49.690Z,0.00
2019-01-23T02:44:49.649Z,0.00
2019-01-23T02:45:49.524Z,0.00
2019-01-23T02:46:49.427Z,0.00
2019-01-23T02:47:49.343Z,0.00
2019-01-23T02:48:49.256Z,0.00
2019-01-23T02:49:49.166Z,0.00
2019-01-23T02:50:49.081Z,0.00
2019-01-23T02:51:48.995Z,0.00
2019-01-23T02:52:48.911Z,0.00
2019-01-23T02:53:48.819Z,0.00
2019-01-23T02:54:48.731Z,0.00
2019-01-23T02:55:48.646Z,0.00
2019-01-23T02:56:48.558Z,0.00
2019-01-23T02:57:48.472Z,0.00
2019-01-23T02:58:48.384Z,0.00
2019-01-23T02:59:48.297Z,0.00
2019-01-23T03:00:48.210Z,0.00
2019-01-23T03:01:48.123Z,0.00
2019-01-23T03:02:48.037Z,0.00
2019-01-23T03:03:47.952Z,0.00
2019-01-23T03:04:47.863Z,0.00
2019-01-23T03:05:47.775Z,0.00
2019-01-23T03:06:47.688Z,0.00
2019-01-23T03:07:47.603Z,0.00
2019-01-23T03:08:47.514Z,0.00
2019-01-23T03:09:47.427Z,0.00
2019-01-23T03:10:47.339Z,0.00
2019-01-23T03:11:47.254Z,0.00
2019-01-23T03:12:47.166Z,0.00
2019-01-23T03:13:47.078Z,0.00
2019-01-23T03:14:46.992Z,0.00
2019-01-23T03:15:46.903Z,0.00
2019-01-23T03:16:46.817Z,0.00
2019-01-23T03:17:46.729Z,0.00
2019-01-23T03:18:46.642Z,0.00
2019-01-23T03:19:46.555Z,0.00
2019-01-23T03:20:46.468Z,0.00
2019-01-23T03:21:46.381Z,0.00
2019-01-23T03:22:46.305Z,0.00
2019-01-23T03:23:46.206Z,0.00
2019-01-23T03:24:46.119Z,0.00
2019-01-23T03:25:46.031Z,0.00
2019-01-23T03:26:45.945Z,0.00
2019-01-23T03:27:45.859Z,0.00
2019-01-23T03:28:45.771Z,0.00
2019-01-23T03:29:45.683Z,0.00
2019-01-23T03:30:45.596Z,0.00
2019-01-23T03:31:45.520Z,0.00
2019-01-23T03:32:45.441Z,0.00
2019-01-23T03:33:45.332Z,0.00
2019-01-23T03:34:45.244Z,0.00
2019-01-23T03:35:45.263Z,0.00
2019-01-23T03:36:45.072Z,0.00
2019-01-23T03:37:44.983Z,0.00
2019-01-23T03:38:44.896Z,0.00
2019-01-23T03:39:44.807Z,0.00
2019-01-23T03:40:44.721Z,0.00
2019-01-23T03:41:44.632Z,0.00
2019-01-23T03:42:44.545Z,0.00
2019-01-23T03:43:44.457Z,0.00
2019-01-23T03:44:44.374Z,0.00
2019-01-23T03:45:44.333Z,0.00
2019-01-23T03:46:44.194Z,0.00
2019-01-23T03:47:44.113Z,0.00
2019-01-23T03:48:44.020Z,0.00
2019-01-23T03:49:43.932Z,0.00
2019-01-23T03:50:43.945Z,0.00
2019-01-23T03:51:43.760Z,0.00
2019-01-23T03:52:43.674Z,0.00
2019-01-23T03:53:43.585Z,0.00
2019-01-23T03:54:43.497Z,0.00
2019-01-23T03:55:43.408Z,0.00
2019-01-23T03:56:43.322Z,0.00
2019-01-23T03:57:43.233Z,0.00
2019-01-23T03:58:43.146Z,0.00
2019-01-23T03:59:43.058Z,0.00
2019-01-23T04:00:43.021Z,0.00
2019-01-23T04:01:42.887Z,0.00
2019-01-23T04:02:42.801Z,0.00
2019-01-23T04:03:42.709Z,0.00
2019-01-23T04:04:42.621Z,0.00
2019-01-23T04:05:42.535Z,0.00
2019-01-23T04:06:42.448Z,0.00
2019-01-23T04:07:42.362Z,0.00
2019-01-23T04:08:42.272Z,0.00
2019-01-23T04:09:42.184Z,0.00
2019-01-23T04:10:42.099Z,0.00
2019-01-23T04:11:42.011Z,0.00
2019-01-23T04:12:41.927Z,0.00
2019-01-23T04:13:41.838Z,0.00
2019-01-23T04:14:41.753Z,0.00
2019-01-23T04:15:41.662Z,0.00
2019-01-23T04:16:41.628Z,0.00
2019-01-23T04:17:41.496Z,0.00
2019-01-23T04:18:41.400Z,0.00
2019-01-23T04:19:41.322Z,0.00
2019-01-23T04:20:41.231Z,0.00
2019-01-23T04:21:41.177Z,0.00
2019-01-23T04:22:41.052Z,0.00
2019-01-23T04:23:40.970Z,0.00
2019-01-23T04:24:40.878Z,0.00
2019-01-23T04:25:40.794Z,0.00
2019-01-23T04:26:40.704Z,0.00
2019-01-23T04:27:40.629Z,0.00
2019-01-23T04:28:40.529Z,0.00
2019-01-23T04:29:40.445Z,0.00
2019-01-23T04:30:40.357Z,0.00
2019-01-23T04:31:40.322Z,0.00
2019-01-23T04:32:40.181Z,0.00
2019-01-23T04:33:40.093Z,0.00
2019-01-23T04:34:40.009Z,0.00
2019-01-23T04:35:39.918Z,0.00
2019-01-23T04:36:39.831Z,0.00
2019-01-23T04:37:39.743Z,0.00
2019-01-23T04:38:39.656Z,0.00
2019-01-23T04:39:39.567Z,0.00
2019-01-23T04:40:39.482Z,0.00
2019-01-23T04:41:39.395Z,0.00
2019-01-23T04:42:39.305Z,0.00
2019-01-23T04:43:39.219Z,0.00
2019-01-23T04:44:39.132Z,0.00
2019-01-23T04:45:39.042Z,0.00
2019-01-23T04:46:39.007Z,0.00
2019-01-23T04:47:38.869Z,0.00
2019-01-23T04:48:38.781Z,0.00
2019-01-23T04:49:38.692Z,0.00
2019-01-23T04:50:38.607Z,0.00
2019-01-23T04:51:38.518Z,0.00
2019-01-23T04:52:38.435Z,0.00
2019-01-23T04:53:38.343Z,0.00
2019-01-23T04:54:38.254Z,0.00
2019-01-23T04:55:38.168Z,0.00
2019-01-23T04:56:38.087Z,0.00
2019-01-23T04:57:37.991Z,0.00
2019-01-23T04:58:37.905Z,0.00
2019-01-23T04:59:37.816Z,0.00
2019-01-23T05:00:37.730Z,0.00
2019-01-23T05:01:37.651Z,0.00
2019-01-23T05:02:37.557Z,0.00
2019-01-23T05:03:37.467Z,0.00
2019-01-23T05:04:37.378Z,0.00
2019-01-23T05:05:37.290Z,0.00
2019-01-23T05:06:37.205Z,0.00
2019-01-23T05:07:37.115Z,0.00
2019-01-23T05:08:37.027Z,0.00
2019-01-23T05:09:36.938Z,0.00
2019-01-23T05:10:36.850Z,0.00
2019-01-23T05:11:36.767Z,0.00
2019-01-23T05:12:36.679Z,0.00
2019-01-23T05:13:36.587Z,0.00
2019-01-23T05:14:36.501Z,0.00
2019-01-23T05:15:36.411Z,0.00
2019-01-23T05:16:36.323Z,0.00
2019-01-23T05:17:36.234Z,0.00
2019-01-23T05:18:36.147Z,0.00
2019-01-23T05:19:36.060Z,0.00
2019-01-23T05:20:35.972Z,0.00
2019-01-23T05:21:35.884Z,0.00
2019-01-23T05:22:35.845Z,0.00
2019-01-23T05:23:35.707Z,0.00
2019-01-23T05:24:35.621Z,0.00
2019-01-23T05:25:35.530Z,0.00
2019-01-23T05:26:35.442Z,0.00
2019-01-23T05:27:35.355Z,0.00
2019-01-23T05:28:35.270Z,0.00
2019-01-23T05:29:35.182Z,0.00
2019-01-23T05:30:35.090Z,0.00
2019-01-23T05:31:35.007Z,0.00
2019-01-23T05:32:34.919Z,0.00
2019-01-23T05:33:34.828Z,0.00
2019-01-23T05:34:34.739Z,0.00
2019-01-23T05:35:34.651Z,0.00
2019-01-23T05:36:34.570Z,0.00
2019-01-23T05:37:34.473Z,0.00
2019-01-23T05:38:34.386Z,0.00
2019-01-23T05:39:34.300Z,0.00
2019-01-23T05:40:34.221Z,0.00
2019-01-23T05:41:34.122Z,0.00
2019-01-23T05:42:34.035Z,0.00
2019-01-23T05:43:33.947Z,0.00
2019-01-23T05:44:33.858Z,0.00
2019-01-23T05:45:33.770Z,0.00
2019-01-23T05:46:33.681Z,0.00
2019-01-23T05:47:33.595Z,0.00
2019-01-23T05:48:33.508Z,0.00
2019-01-23T05:49:33.428Z,0.00
2019-01-23T05:50:33.330Z,0.00
2019-01-23T05:51:33.240Z,0.00
2019-01-23T05:52:33.155Z,0.00
2019-01-23T05:53:33.066Z,0.00
2019-01-23T05:54:32.979Z,0.00
2019-01-23T05:55:32.892Z,0.00
2019-01-23T05:56:32.812Z,0.00
2019-01-23T05:57:32.714Z,0.00
2019-01-23T05:58:32.628Z,0.00
2019-01-23T05:59:32.546Z,0.00
2019-01-23T06:00:32.450Z,0.00
2019-01-23T06:01:32.360Z,0.00
2019-01-23T06:02:32.275Z,0.00
2019-01-23T06:03:32.336Z,0.00
2019-01-23T06:04:32.097Z,0.00
2019-01-23T06:05:32.010Z,0.00
2019-01-23T06:06:31.922Z,0.00
2019-01-23T06:07:31.845Z,0.00
2019-01-23T06:08:31.746Z,0.00
2019-01-23T06:09:31.658Z,0.00
2019-01-23T06:10:31.572Z,0.00
2019-01-23T06:11:31.521Z,0.00
2019-01-23T06:12:31.394Z,0.00
2019-01-23T06:13:31.306Z,0.00
2019-01-23T06:14:31.367Z,0.00
2019-01-23T06:15:31.133Z,0.00
2019-01-23T06:16:31.043Z,0.00
2019-01-23T06:17:30.955Z,0.00
2019-01-23T06:18:30.868Z,0.00
2019-01-23T06:19:30.779Z,0.00
2019-01-23T06:20:30.692Z,0.00
2019-01-23T06:21:30.604Z,0.00
2019-01-23T06:22:30.517Z,0.00
2019-01-23T06:23:30.428Z,0.00
2019-01-23T06:24:30.342Z,0.00
2019-01-23T06:25:30.257Z,0.00
2019-01-23T06:26:30.167Z,0.00
2019-01-23T06:27:30.078Z,0.00
2019-01-23T06:28:29.991Z,0.00
2019-01-23T06:29:29.903Z,0.00
2019-01-23T06:30:29.816Z,0.00
2019-01-23T06:31:29.729Z,0.00
2019-01-23T06:32:29.642Z,0.00
2019-01-23T06:33:29.553Z,0.00
2019-01-23T06:34:29.466Z,0.00
2019-01-23T06:35:29.378Z,0.00
2019-01-23T06:36:29.291Z,0.00
2019-01-23T06:37:29.204Z,0.00
2019-01-23T06:38:29.116Z,0.00
2019-01-23T06:39:29.030Z,0.00
2019-01-23T06:40:28.942Z,4.00
2019-01-23T06:41:28.854Z,4.00
2019-01-23T06:42:28.766Z,4.00
2019-01-23T06:43:28.681Z,0.00
2019-01-23T06:44:28.592Z,4.00
2019-01-23T06:45:28.503Z,4.00
2019-01-23T06:46:28.416Z,4.00
2019-01-23T06:47:28.329Z,4.00
2019-01-23T06:48:28.242Z,8.00
2019-01-23T06:49:28.154Z,4.00
2019-01-23T06:50:28.084Z,8.00
2019-01-23T06:51:27.979Z,8.00
2019-01-23T06:52:27.898Z,8.00
2019-01-23T06:53:27.806Z,12.00
2019-01-23T06:54:27.716Z,12.00
2019-01-23T06:55:27.629Z,12.00
2019-01-23T06:56:27.641Z,16.00
2019-01-23T06:57:27.455Z,20.00
2019-01-23T06:58:27.364Z,20.00
2019-01-23T06:59:27.278Z,24.00
2019-01-23T07:00:27.191Z,28.00
2019-01-23T07:01:27.103Z,28.00
2019-01-23T07:02:27.014Z,32.00
2019-01-23T07:03:26.928Z,40.00
2019-01-23T07:04:26.840Z,40.00
2019-01-23T07:05:26.754Z,44.00
2019-01-23T07:06:26.764Z,48.00
2019-01-23T07:07:26.578Z,52.00
2019-01-23T07:08:26.493Z,56.00
2019-01-23T07:09:26.402Z,60.00
2019-01-23T07:10:26.315Z,68.00
2019-01-23T07:11:26.226Z,68.00
2019-01-23T07:12:26.139Z,72.00
2019-01-23T07:13:26.052Z,80.00
2019-01-23T07:14:25.963Z,80.00
2019-01-23T07:15:25.884Z,88.00
2019-01-23T07:16:25.788Z,96.00
2019-01-23T07:17:25.700Z,104.00
2019-01-23T07:18:25.612Z,112.00
2019-01-23T07:19:25.526Z,124.00
2019-01-23T07:20:25.437Z,140.00
2019-01-23T07:21:25.348Z,140.00
2019-01-23T07:22:25.261Z,148.00
2019-01-23T07:23:25.172Z,160.00
2019-01-23T07:24:25.086Z,172.00
2019-01-23T07:25:24.997Z,184.00
2019-01-23T07:26:24.909Z,188.00
2019-01-23T07:27:24.822Z,196.00
2019-01-23T07:28:24.734Z,204.00
2019-01-23T07:29:24.646Z,220.00
2019-01-23T07:30:24.622Z,232.00
2019-01-23T07:31:24.473Z,244.00
2019-01-23T07:32:24.426Z,272.00
2019-01-23T07:33:24.303Z,288.00
2019-01-23T07:34:24.208Z,312.00
2019-01-23T07:35:24.121Z,340.00
2019-01-23T07:36:24.034Z,360.00
2019-01-23T07:37:23.944Z,388.00
2019-01-23T07:38:23.857Z,428.00
2019-01-23T07:39:23.768Z,480.00
2019-01-23T07:40:23.681Z,524.00
2019-01-23T07:41:23.618Z,540.00
2019-01-23T07:42:23.507Z,528.00
2019-01-23T07:43:23.419Z,548.00
2019-01-23T07:44:23.332Z,564.00
2019-01-23T07:45:23.242Z,624.00
2019-01-23T07:46:23.156Z,624.00
2019-01-23T07:47:23.071Z,616.00
2019-01-23T07:48:22.983Z,612.00
2019-01-23T07:49:22.893Z,604.00
2019-01-23T07:50:22.806Z,616.00
2019-01-23T07:51:22.717Z,628.00
2019-01-23T07:52:22.630Z,648.00
2019-01-23T07:53:22.543Z,668.00
2019-01-23T07:54:22.456Z,680.00
2019-01-23T07:55:22.368Z,716.00
2019-01-23T07:56:22.280Z,728.00
2019-01-23T07:57:22.193Z,732.00
2019-01-23T07:58:22.106Z,712.00
2019-01-23T07:59:22.018Z,696.00
2019-01-23T08:00:21.930Z,696.00
2019-01-23T08:01:21.844Z,720.00
2019-01-23T08:02:21.753Z,764.00
2019-01-23T08:03:21.667Z,760.00
2019-01-23T08:04:21.579Z,784.00
2019-01-23T08:05:21.491Z,788.00
2019-01-23T08:06:21.405Z,808.00
2019-01-23T08:07:21.316Z,844.00
2019-01-23T08:08:21.229Z,892.00
2019-01-23T08:09:21.139Z,904.00
2019-01-23T08:10:21.050Z,924.00
2019-01-23T08:11:20.964Z,956.00
2019-01-23T08:12:20.877Z,948.00
2019-01-23T08:13:20.829Z,964.00
2019-01-23T08:14:20.701Z,980.00
2019-01-23T08:15:20.619Z,1012.00
2019-01-23T08:16:20.525Z,1052.00
2019-01-23T08:17:20.436Z,1088.00
2019-01-23T08:18:20.349Z,1104.00
2019-01-23T08:19:20.263Z,1132.00
2019-01-23T08:20:20.175Z,1168.00
2019-01-23T08:21:20.085Z,1180.00
2019-01-23T08:22:19.999Z,1176.00
2019-01-23T08:23:19.912Z,1160.00
2019-01-23T08:24:19.821Z,1176.00
2019-01-23T08:25:19.734Z,1216.00
2019-01-23T08:26:19.645Z,1212.00
2019-01-23T08:27:19.560Z,1208.00
2019-01-23T08:28:19.471Z,1236.00
2019-01-23T08:29:19.383Z,1252.00
2019-01-23T08:30:19.300Z,1252.00
2019-01-23T08:31:19.206Z,1336.00
2019-01-23T08:32:19.119Z,1440.00
2019-01-23T08:33:19.032Z,1540.00
2019-01-23T08:34:18.945Z,1684.00
2019-01-23T08:35:18.858Z,1808.00
2019-01-23T08:36:18.770Z,1748.00
2019-01-23T08:37:18.683Z,1724.00
2019-01-23T08:38:18.593Z,1772.00
2019-01-23T08:39:18.507Z,1844.00
2019-01-23T08:40:18.421Z,1856.00
2019-01-23T08:41:18.334Z,1792.00
2019-01-23T08:42:18.243Z,1860.00
2019-01-23T08:43:18.159Z,1884.00
2019-01-23T08:44:18.119Z,1828.00
2019-01-23T08:45:17.981Z,1852.00
2019-01-23T08:46:17.893Z,1836.00
2019-01-23T08:47:17.807Z,1876.00
2019-01-23T08:48:17.719Z,1932.00
2019-01-23T08:49:17.631Z,1980.00
2019-01-23T08:50:17.543Z,2100.00
2019-01-23T08:51:17.459Z,2144.00
2019-01-23T08:52:17.369Z,2104.00
2019-01-23T08:53:17.281Z,1952.00
2019-01-23T08:54:17.193Z,1992.00
2019-01-23T08:55:17.108Z,2236.00
2019-01-23T08:56:17.019Z,2256.00
2019-01-23T08:57:16.930Z,2348.00
2019-01-23T08:58:16.842Z,2504.00
2019-01-23T08:59:16.757Z,2716.00
2019-01-23T09:00:16.667Z,2672.00
2019-01-23T09:01:16.580Z,2308.00
2019-01-23T09:02:16.493Z,2308.00
2019-01-23T09:03:16.405Z,2244.00
2019-01-23T09:04:16.319Z,2216.00
2019-01-23T09:05:16.234Z,2180.00
2019-01-23T09:06:16.143Z,2168.00
2019-01-23T09:07:16.056Z,2216.00
2019-01-23T09:08:15.969Z,2232.00
2019-01-23T09:09:15.893Z,2172.00
2019-01-23T09:10:15.794Z,2000.00
2019-01-23T09:11:15.707Z,1972.00
2019-01-23T09:12:15.620Z,1952.00
2019-01-23T09:13:15.532Z,1732.00
2019-01-23T09:14:15.443Z,1792.00
2019-01-23T09:15:15.355Z,1832.00
2019-01-23T09:16:15.270Z,1880.00
2019-01-23T09:17:15.181Z,2112.00
2019-01-23T09:18:15.094Z,2280.00
2019-01-23T09:19:15.007Z,2420.00
2019-01-23T09:20:14.921Z,2628.00
2019-01-23T09:21:14.833Z,2736.00
2019-01-23T09:22:14.746Z,2732.00
2019-01-23T09:23:14.660Z,2704.00
2019-01-23T09:24:14.572Z,2748.00
2019-01-23T09:25:14.485Z,2832.00
2019-01-23T09:26:14.399Z,2892.00
2019-01-23T09:27:14.312Z,2960.00
2019-01-23T09:28:14.228Z,3308.00
2019-01-23T09:29:14.140Z,3736.00
2019-01-23T09:30:14.400Z,3924.00
2019-01-23T09:31:13.966Z,3972.00
2019-01-23T09:32:13.877Z,4076.00
2019-01-23T09:33:13.790Z,4604.00
2019-01-23T09:34:13.704Z,4752.00
2019-01-23T09:35:13.618Z,4592.00
2019-01-23T09:36:13.531Z,4752.00
2019-01-23T09:37:13.444Z,4792.00
2019-01-23T09:38:13.357Z,4668.00
2019-01-23T09:39:13.271Z,4636.00
2019-01-23T09:40:13.185Z,4424.00
2019-01-23T09:41:13.097Z,4060.00
2019-01-23T09:42:13.012Z,3808.00
2019-01-23T09:43:12.924Z,3872.00
2019-01-23T09:44:12.840Z,4176.00
2019-01-23T09:45:12.751Z,4300.00
2019-01-23T09:46:12.665Z,4152.00
2019-01-23T09:47:12.582Z,3792.00
2019-01-23T09:48:12.493Z,3512.00
2019-01-23T09:49:12.408Z,3376.00
2019-01-23T09:50:12.420Z,3324.00
2019-01-23T09:51:12.235Z,3444.00
2019-01-23T09:52:12.148Z,3716.00
2019-01-23T09:53:12.061Z,3836.00
2019-01-23T09:54:11.976Z,3872.00
2019-01-23T09:55:11.888Z,4136.00
2019-01-23T09:56:11.803Z,4204.00
2019-01-23T09:57:11.716Z,4032.00
2019-01-23T09:58:11.630Z,4092.00
2019-01-23T09:59:11.544Z,4048.00
2019-01-23T10:00:11.461Z,4068.00
2019-01-23T10:01:11.370Z,4340.00
2019-01-23T10:02:11.283Z,4392.00
2019-01-23T10:03:11.200Z,4376.00
2019-01-23T10:04:11.111Z,4404.00
2019-01-23T10:05:11.025Z,4484.00
2019-01-23T10:06:10.939Z,4448.00
2019-01-23T10:07:10.852Z,4160.00
2019-01-23T10:08:10.769Z,4024.00
2019-01-23T10:09:10.685Z,3956.00
2019-01-23T10:10:10.593Z,3884.00
2019-01-23T10:11:10.507Z,3736.00
2019-01-23T10:12:10.421Z,3552.00
2019-01-23T10:13:10.335Z,3456.00
2019-01-23T10:14:10.252Z,3252.00
2019-01-23T10:15:10.166Z,3472.00
2019-01-23T10:16:10.080Z,3540.00
2019-01-23T10:17:09.991Z,3552.00
2019-01-23T10:18:09.904Z,3440.00
2019-01-23T10:19:09.818Z,3524.00
2019-01-23T10:20:09.733Z,3612.00
2019-01-23T10:21:09.645Z,3528.00
2019-01-23T10:22:09.560Z,3560.00
2019-01-23T10:23:09.474Z,3504.00
2019-01-23T10:24:09.388Z,3464.00
2019-01-23T10:25:09.301Z,3400.00
2019-01-23T10:26:09.215Z,3540.00
2019-01-23T10:27:09.129Z,3976.00
2019-01-23T10:28:09.043Z,4504.00
2019-01-23T10:29:08.957Z,4904.00
2019-01-23T10:30:08.870Z,4940.00
2019-01-23T10:31:08.784Z,4444.00
2019-01-23T10:32:08.697Z,4040.00
2019-01-23T10:33:08.616Z,3692.00
2019-01-23T10:34:08.525Z,3504.00
2019-01-23T10:35:08.439Z,3464.00
2019-01-23T10:36:08.353Z,3668.00
2019-01-23T10:37:08.267Z,3988.00
2019-01-23T10:38:08.181Z,4156.00
2019-01-23T10:39:08.093Z,4096.00
2019-01-23T10:40:08.008Z,3868.00
2019-01-23T10:41:07.922Z,3792.00
2019-01-23T10:42:07.833Z,3756.00
2019-01-23T10:43:07.749Z,3508.00
2019-01-23T10:44:07.662Z,3372.00
2019-01-23T10:45:07.576Z,3220.00
2019-01-23T10:46:07.490Z,3460.00
2019-01-23T10:47:07.404Z,4152.00
2019-01-23T10:48:07.319Z,4604.00
2019-01-23T10:49:07.232Z,4752.00
2019-01-23T10:50:07.144Z,4780.00
2019-01-23T10:51:07.061Z,4956.00
2019-01-23T10:52:06.974Z,4916.00
2019-01-23T10:53:06.889Z,4692.00
2019-01-23T10:54:06.800Z,4460.00
2019-01-23T10:55:06.714Z,4360.00
2019-01-23T10:56:06.628Z,4232.00
2019-01-23T10:57:06.541Z,4044.00
2019-01-23T10:58:06.460Z,3980.00
2019-01-23T10:59:06.370Z,4092.00
2019-01-23T11:00:06.284Z,4212.00
2019-01-23T11:01:06.197Z,4360.00
2019-01-23T11:02:06.113Z,4384.00
2019-01-23T11:03:10.018Z,4236.00
2019-01-23T11:04:05.941Z,4020.00
2019-01-23T11:05:05.855Z,4096.00
2019-01-23T11:06:05.772Z,3960.00
2019-01-23T11:07:05.682Z,4028.00
2019-01-23T11:08:05.598Z,4288.00
2019-01-23T11:09:05.562Z,3796.00
2019-01-23T11:10:05.425Z,3356.00
2019-01-23T11:11:05.338Z,3016.00
2019-01-23T11:12:05.253Z,2828.00
2019-01-23T11:13:05.165Z,3060.00
2019-01-23T11:14:05.082Z,3796.00
2019-01-23T11:15:04.994Z,3976.00
2019-01-23T11:16:04.910Z,3952.00
2019-01-23T11:17:04.823Z,3968.00
2019-01-23T11:18:04.737Z,3968.00
2019-01-23T11:19:04.651Z,3892.00
2019-01-23T11:20:04.565Z,3784.00
2019-01-23T11:21:04.488Z,3780.00
2019-01-23T11:22:04.392Z,3988.00
2019-01-23T11:23:04.308Z,4076.00
2019-01-23T11:24:04.223Z,3968.00
2019-01-23T11:25:04.139Z,3868.00
2019-01-23T11:26:04.051Z,3836.00
2019-01-23T11:27:03.964Z,3784.00
2019-01-23T11:28:03.878Z,3748.00
2019-01-23T11:29:03.792Z,3696.00
2019-01-23T11:30:03.708Z,3624.00
2019-01-23T11:31:03.619Z,3344.00
2019-01-23T11:32:03.533Z,2768.00
2019-01-23T11:33:03.451Z,2296.00
2019-01-23T11:34:03.361Z,2480.00
2019-01-23T11:35:03.275Z,3048.00
2019-01-23T11:36:03.195Z,3348.00
2019-01-23T11:37:03.104Z,3332.00
2019-01-23T11:38:03.016Z,3428.00
2019-01-23T11:39:03.260Z,3556.00
2019-01-23T11:40:02.843Z,3536.00
2019-01-23T11:41:02.757Z,3448.00
2019-01-23T11:42:02.672Z,3376.00
2019-01-23T11:43:02.585Z,3416.00
2019-01-23T11:44:02.501Z,3540.00
2019-01-23T11:45:02.412Z,3392.00
2019-01-23T11:46:02.324Z,3260.00
2019-01-23T11:47:02.240Z,3072.00
2019-01-23T11:48:02.153Z,2860.00
2019-01-23T11:49:02.068Z,2932.00
2019-01-23T11:50:01.979Z,3092.00
2019-01-23T11:51:01.897Z,2836.00
2019-01-23T11:52:01.808Z,2548.00
2019-01-23T11:53:01.721Z,2520.00
2019-01-23T11:54:01.635Z,2736.00
2019-01-23T11:55:01.548Z,2924.00
2019-01-23T11:56:01.463Z,2868.00
2019-01-23T11:57:01.376Z,2916.00
2019-01-23T11:58:01.289Z,2976.00
2019-01-23T11:59:01.203Z,2888.00
2019-01-23T12:00:01.117Z,2836.00
2019-01-23T12:01:01.029Z,2700.00
2019-01-23T12:02:00.946Z,2540.00
2019-01-23T12:03:00.859Z,2308.00
2019-01-23T12:04:00.771Z,2108.00
2019-01-23T12:05:00.683Z,1964.00
2019-01-23T12:06:00.601Z,1888.00
2019-01-23T12:07:00.512Z,1844.00
2019-01-23T12:08:00.426Z,1848.00
2019-01-23T12:09:00.338Z,1868.00
2019-01-23T12:10:00.260Z,1936.00
2019-01-23T12:11:00.166Z,1952.00
2019-01-23T12:12:00.080Z,1928.00
2019-01-23T12:12:59.992Z,1984.00
2019-01-23T12:13:59.906Z,2112.00
2019-01-23T12:14:59.827Z,2176.00
2019-01-23T12:15:59.732Z,2216.00
2019-01-23T12:16:59.645Z,2272.00
2019-01-23T12:17:59.560Z,2192.00
2019-01-23T12:18:59.473Z,2008.00
2019-01-23T12:19:59.385Z,1944.00
2019-01-23T12:20:59.300Z,1828.00
2019-01-23T12:21:59.213Z,1780.00
2019-01-23T12:22:59.127Z,1796.00
2019-01-23T12:23:59.041Z,1736.00
2019-01-23T12:24:58.953Z,1680.00
2019-01-23T12:25:58.867Z,1664.00
2019-01-23T12:26:58.780Z,1600.00
2019-01-23T12:27:58.698Z,1628.00
2019-01-23T12:28:58.644Z,1712.00
2019-01-23T12:29:58.520Z,1748.00
2019-01-23T12:30:58.433Z,1816.00
2019-01-23T12:31:58.346Z,1968.00
2019-01-23T12:32:58.262Z,2120.00
2019-01-23T12:33:58.174Z,2300.00
2019-01-23T12:34:58.088Z,2500.00
2019-01-23T12:35:58.000Z,2648.00
2019-01-23T12:36:57.913Z,2636.00
2019-01-23T12:37:57.827Z,2652.00
2019-01-23T12:38:57.741Z,2768.00
2019-01-23T12:39:57.653Z,2844.00
2019-01-23T12:40:57.565Z,2948.00
2019-01-23T12:41:57.491Z,2948.00
2019-01-23T12:42:57.393Z,2924.00
2019-01-23T12:43:57.307Z,2904.00
2019-01-23T12:44:57.219Z,2744.00